Time;durP1;ratioP1;P1;durP2;ratioP2;P2;SDS_P1;SDS_P2;PMS_P1;PMS_P2;Temp;Humidity;BMP_temperature;BMP_pressure;BME280_temperature;BME280_humidity;BME280_pressure;Samples;Min_cycle;Max_cycle;Signal;HPM_P1;HPM_P2
2022/10/20 00:02:21;;;;;;;8.15;3.02;;;;;;;11.59;71.98;150567.50;1646142;85;21542;-67
2022/10/20 00:04:47;;;;;;;7.08;2.80;;;;;;;11.60;71.44;150570.09;1637246;86;21083;-65
2022/10/20 00:07:15;;;;;;;5.30;3.05;;;;;;;11.60;70.86;150568.78;1649661;86;21107;-65
2022/10/20 00:09:41;;;;;;;11.08;3.72;;;;;;;11.60;70.51;150568.78;1653663;85;21273;-65
2022/10/20 00:12:15;;;;;;;8.93;2.55;;;;;;;11.57;70.02;150560.98;1641282;86;21071;-62
2022/10/20 00:14:42;;;;;;;6.55;2.62;;;;;;;11.55;69.87;150555.80;1660624;86;21517;-62
2022/10/20 00:17:09;;;;;;;6.37;2.27;;;;;;;11.52;69.49;150548.02;1647641;86;21076;-62
2022/10/20 00:19:36;;;;;;;6.55;2.40;;;;;;;11.50;69.23;150542.81;1659323;85;20976;-62
2022/10/20 00:22:04;;;;;;;6.08;2.30;;;;;;;11.48;68.99;150537.63;1663063;86;21154;-62
2022/10/20 00:24:31;;;;;;;6.47;2.25;;;;;;;11.45;68.92;150532.44;1653769;86;21064;-62
2022/10/20 00:26:58;;;;;;;5.45;2.30;;;;;;;11.41;68.87;150522.06;1644051;85;21578;-62
2022/10/20 00:29:26;;;;;;;7.30;2.00;;;;;;;11.37;68.76;150511.64;1633148;86;21149;-64
2022/10/20 00:31:53;;;;;;;11.20;2.72;;;;;;;11.31;68.68;150497.39;1627886;87;21113;-61
2022/10/20 00:34:20;;;;;;;8.33;1.98;;;;;;;11.27;68.78;150487.02;1633052;87;21975;-61
2022/10/20 00:36:47;;;;;;;9.68;2.58;;;;;;;11.24;68.78;150479.19;1635614;87;21119;-63
2022/10/20 00:39:13;;;;;;;4.85;2.10;;;;;;;11.22;68.74;150472.72;1635059;87;21077;-63
2022/10/20 00:41:40;;;;;;;8.18;2.20;;;;;;;11.21;68.75;150471.41;1633726;87;21091;-61
2022/10/20 00:44:55;;;;;;;10.10;2.27;;;;;;;11.19;68.75;150466.22;1633232;87;21160;-62
2022/10/20 00:47:41;;;;;;;8.63;2.40;;;;;;;11.15;68.79;150457.11;1634642;87;21285;-62
2022/10/20 00:50:18;;;;;;;7.10;2.70;;;;;;;11.11;68.81;150446.73;1619839;88;21553;-63
2022/10/20 00:52:46;;;;;;;5.08;2.05;;;;;;;11.08;68.91;150437.67;1620134;88;21133;-62
2022/10/20 00:55:18;;;;;;;5.03;2.25;;;;;;;11.03;69.03;150425.98;1619814;88;21061;-63
2022/10/20 00:57:46;;;;;;;5.22;1.85;;;;;;;11.00;69.11;150418.20;1607632;88;21387;-62
2022/10/20 01:00:15;;;;;;;5.05;1.90;;;;;;;10.98;69.19;150413.00;1608714;87;21080;-62
2022/10/20 01:02:42;;;;;;;8.05;2.35;;;;;;;10.94;69.30;150403.91;1633295;86;21150;-62
2022/10/20 01:05:09;;;;;;;13.03;2.42;;;;;;;10.88;69.43;150388.34;1632997;87;21552;-62
2022/10/20 01:07:36;;;;;;;9.23;2.70;;;;;;;10.82;69.62;150374.06;1634841;87;21112;-66
2022/10/20 01:10:04;;;;;;;12.33;2.42;;;;;;;10.78;69.79;150363.69;1638216;86;21136;-62
2022/10/20 01:13:01;;;;;;;8.08;2.70;;;;;;;10.73;69.96;150350.72;1638548;87;21581;-62
2022/10/20 01:15:46;;;;;;;12.18;2.58;;;;;;;10.68;70.16;150337.70;1638535;87;21084;-63
2022/10/20 01:18:43;;;;;;;12.65;2.37;;;;;;;10.64;70.40;150327.33;1638659;86;21534;-61
2022/10/20 01:21:25;;;;;;;10.78;2.55;;;;;;;10.57;70.65;150311.77;1658476;86;21684;-62
2022/10/20 01:24:28;;;;;;;11.48;2.85;;;;;;;10.54;70.89;150303.98;1634826;86;21068;-62
2022/10/20 01:27:19;;;;;;;16.30;3.20;;;;;;;10.51;71.14;150294.89;1648402;85;21300;-62
2022/10/20 01:29:57;;;;;;;7.65;2.60;;;;;;;10.45;71.38;150281.92;1662847;85;21103;-62
2022/10/20 01:33:13;;;;;;;9.43;2.80;;;;;;;10.40;71.63;150267.59;1665678;85;20989;-62
2022/10/20 01:35:47;;;;;;;7.28;2.60;;;;;;;10.34;71.92;150252.03;1667276;85;21111;-62
2022/10/20 01:38:40;;;;;;;6.50;2.70;;;;;;;10.27;72.27;150236.44;1630235;87;21136;-62
2022/10/20 01:41:21;;;;;;;5.65;2.45;;;;;;;10.22;72.62;150223.47;1623688;87;21104;-63
2022/10/20 01:43:48;;;;;;;5.80;2.22;;;;;;;10.15;73.18;150205.31;1659049;85;21048;-62
2022/10/20 01:46:16;;;;;;;12.43;2.45;;;;;;;10.09;73.62;150189.77;1657637;86;21076;-65
2022/10/20 01:48:44;;;;;;;10.15;2.15;;;;;;;10.03;74.03;150175.48;1646315;86;21135;-64
2022/10/20 01:51:11;;;;;;;10.05;2.30;;;;;;;9.98;74.52;150163.80;1581533;86;21016;-65
2022/10/20 01:53:38;;;;;;;8.40;2.45;;;;;;;9.93;74.99;150150.84;1645725;86;21064;-66
2022/10/20 01:56:08;;;;;;;11.15;2.65;;;;;;;9.89;75.29;150140.47;1645489;86;21614;-66
2022/10/20 01:58:55;;;;;;;12.43;2.40;;;;;;;9.83;75.58;150126.19;1646574;86;21076;-65
2022/10/20 02:02:03;;;;;;;16.10;2.58;;;;;;;9.79;75.84;150114.50;1644640;86;21076;-66
2022/10/20 02:04:45;;;;;;;7.03;2.20;;;;;;;9.74;76.17;150102.88;1656893;86;21197;-65
2022/10/20 02:07:18;;;;;;;11.83;2.72;;;;;;;9.67;76.54;150086.00;1662349;86;21305;-62
2022/10/20 02:09:52;;;;;;;11.90;2.17;;;;;;;9.61;76.90;150070.41;1607482;87;21108;-62
2022/10/20 02:12:23;;;;;;;6.53;1.90;;;;;;;9.57;77.21;150060.03;1614394;86;21104;-63
2022/10/20 02:14:52;;;;;;;9.88;2.33;;;;;;;9.51;77.50;150044.48;1650864;86;21127;-62
2022/10/20 02:17:18;;;;;;;5.05;2.20;;;;;;;9.45;77.77;150031.53;1645768;86;21152;-62
2022/10/20 02:19:48;;;;;;;6.67;2.00;;;;;;;9.42;78.09;150022.44;1626989;87;21309;-62
2022/10/20 02:22:15;;;;;;;6.65;2.30;;;;;;;9.38;78.33;150013.34;1658895;86;21542;-62
2022/10/20 02:24:43;;;;;;;5.83;2.15;;;;;;;9.34;78.58;150002.98;1624075;87;21132;-62
2022/10/20 02:27:17;;;;;;;7.72;2.30;;;;;;;9.32;78.67;149997.81;1668939;84;21423;-62
2022/10/20 02:29:51;;;;;;;12.30;2.90;;;;;;;9.29;78.81;149990.03;1673567;85;21001;-61
2022/10/20 02:32:18;;;;;;;5.83;2.70;;;;;;;9.26;78.99;149982.27;1692204;83;22750;-62
2022/10/20 02:34:45;;;;;;;7.47;2.25;;;;;;;9.24;79.16;149977.08;1678627;84;21039;-62
2022/10/20 02:37:12;;;;;;;6.70;2.85;;;;;;;9.22;79.30;149971.91;1600158;86;21406;-61
2022/10/20 02:39:40;;;;;;;5.92;2.02;;;;;;;9.16;79.49;149958.91;1661802;84;21035;-62
2022/10/20 02:42:07;;;;;;;6.50;2.47;;;;;;;9.14;79.68;149952.45;1660817;84;21110;-62
2022/10/20 02:44:35;;;;;;;5.80;2.50;;;;;;;9.10;79.86;149943.36;1635867;85;21269;-62
2022/10/20 02:47:04;;;;;;;7.28;2.47;;;;;;;9.06;80.08;149931.69;1667396;85;21023;-64
2022/10/20 02:49:31;;;;;;;8.55;2.17;;;;;;;9.02;80.26;149922.64;1668798;84;21300;-62
2022/10/20 02:51:57;;;;;;;7.85;2.80;;;;;;;8.99;80.51;149916.14;1651053;85;21093;-62
2022/10/20 02:54:26;;;;;;;5.78;2.20;;;;;;;8.97;80.74;149909.69;1691402;83;21008;-62
2022/10/20 02:56:54;;;;;;;8.78;2.20;;;;;;;8.95;80.98;149904.47;1673950;85;21159;-61
2022/10/20 02:59:21;;;;;;;6.03;2.50;;;;;;;8.93;81.22;149899.28;1671062;84;21048;-62
2022/10/20 03:01:47;;;;;;;4.33;2.22;;;;;;;8.91;81.50;149895.42;1661488;86;21052;-62
2022/10/20 03:04:16;;;;;;;7.75;2.25;;;;;;;8.89;81.80;149890.23;1690595;84;21036;-64
2022/10/20 03:06:43;;;;;;;4.37;2.37;;;;;;;8.87;82.01;149886.33;1643084;86;21137;-64
2022/10/20 03:09:10;;;;;;;3.70;2.10;;;;;;;8.87;82.20;149885.06;1680969;84;21723;-64
2022/10/20 03:11:37;;;;;;;4.53;2.25;;;;;;;8.86;82.45;149883.73;1663353;84;21067;-64
2022/10/20 03:14:05;;;;;;;6.83;2.27;;;;;;;8.88;82.60;149888.92;1667830;84;21034;-64
2022/10/20 03:16:34;;;;;;;5.35;2.30;;;;;;;8.89;82.63;149891.50;1671118;84;20985;-64
2022/10/20 03:19:00;;;;;;;4.37;2.20;;;;;;;8.89;82.64;149891.50;1679365;84;21055;-64
2022/10/20 03:21:27;;;;;;;6.33;2.40;;;;;;;8.89;82.57;149891.50;1688591;84;21296;-62
2022/10/20 03:23:55;;;;;;;4.53;2.17;;;;;;;8.89;82.54;149890.23;1683304;84;21090;-61
2022/10/20 03:26:22;;;;;;;6.33;2.30;;;;;;;8.88;82.60;149887.66;1664200;84;21111;-62
2022/10/20 03:28:49;;;;;;;3.15;2.08;;;;;;;8.84;82.70;149878.56;1644099;86;21081;-64
2022/10/20 03:31:15;;;;;;;3.40;2.00;;;;;;;8.82;82.84;149872.06;1647163;86;21092;-62
2022/10/20 03:33:42;;;;;;;7.22;2.42;;;;;;;8.78;82.99;149863.03;1632475;87;22210;-63
2022/10/20 03:36:10;;;;;;;8.70;2.20;;;;;;;8.73;83.16;149850.03;1625900;86;21069;-62
2022/10/20 03:38:40;;;;;;;6.30;2.10;;;;;;;8.68;83.32;149837.08;1626486;87;21140;-61
2022/10/20 03:41:07;;;;;;;3.80;1.90;;;;;;;8.64;83.25;149826.72;1602654;88;21083;-64
2022/10/20 03:43:34;;;;;;;5.30;1.60;;;;;;;8.62;83.26;149822.86;1634727;86;21009;-64
2022/10/20 03:46:06;;;;;;;9.90;1.95;;;;;;;8.62;83.09;149821.55;1626599;87;21753;-65
2022/10/20 03:48:34;;;;;;;7.80;1.60;;;;;;;8.62;82.21;149821.55;1620530;87;21522;-62
2022/10/20 03:51:02;;;;;;;11.45;1.30;;;;;;;8.63;79.57;149824.13;1619772;87;21133;-62
2022/10/20 03:53:29;;;;;;;15.75;1.20;;;;;;;8.66;76.63;149831.91;1632820;87;21554;-62
2022/10/20 03:55:56;;;;;;;3.83;1.02;;;;;;;8.69;74.19;149839.67;1660992;85;21335;-62
2022/10/20 03:58:23;;;;;;;3.87;1.52;;;;;;;8.72;72.76;149847.44;1641085;87;21184;-64
2022/10/20 04:00:49;;;;;;;9.88;1.02;;;;;;;8.72;71.32;149848.75;1637913;86;21127;-65
2022/10/20 04:03:16;;;;;;;7.10;1.25;;;;;;;8.74;70.69;149852.66;1635686;86;21068;-64
2022/10/20 04:05:43;;;;;;;3.65;0.75;;;;;;;8.74;70.02;149852.66;1626156;87;21179;-64
2022/10/20 04:08:11;;;;;;;5.03;0.68;;;;;;;8.71;68.50;149844.84;1634153;87;21576;-64
2022/10/20 04:10:39;;;;;;;16.93;1.05;;;;;;;8.69;67.84;149839.67;1649968;86;21919;-65
2022/10/20 04:13:06;;;;;;;1.65;0.60;;;;;;;8.66;65.81;149831.91;1633692;87;21058;-64
2022/10/20 04:15:34;;;;;;;3.72;0.80;;;;;;;8.61;65.24;149820.22;1625433;87;21388;-64
2022/10/20 04:18:02;;;;;;;3.08;0.70;;;;;;;8.55;64.73;149806.00;1625677;87;21060;-64
2022/10/20 04:20:29;;;;;;;1.98;0.62;;;;;;;8.49;63.98;149790.38;1630084;87;21105;-64
2022/10/20 04:22:57;;;;;;;3.75;0.70;;;;;;;8.40;63.69;149767.08;1626651;87;21154;-64
2022/10/20 04:25:24;;;;;;;8.95;0.80;;;;;;;8.31;63.26;149746.38;1660205;86;21048;-65
2022/10/20 04:27:50;;;;;;;7.47;0.80;;;;;;;8.24;63.20;149728.19;1656741;84;21059;-65
2022/10/20 04:30:18;;;;;;;3.45;0.60;;;;;;;8.14;63.08;149703.58;1692396;84;21055;-64
2022/10/20 04:32:48;;;;;;;5.33;0.80;;;;;;;8.07;63.10;149684.14;1668181;84;21395;-64
2022/10/20 04:35:16;;;;;;;1.42;0.55;;;;;;;7.98;63.17;149663.44;1671980;85;21302;-65
2022/10/20 04:37:43;;;;;;;8.30;0.78;;;;;;;7.92;63.41;149646.59;1673800;84;21069;-64
2022/10/20 04:40:11;;;;;;;5.78;0.50;;;;;;;7.83;63.34;149625.89;1682270;84;21168;-64
2022/10/20 04:42:37;;;;;;;3.90;0.70;;;;;;;7.79;63.26;149614.22;1676647;84;21060;-64
2022/10/20 04:45:06;;;;;;;4.20;0.80;;;;;;;7.74;62.90;149603.86;1666967;84;21088;-64
2022/10/20 04:47:33;;;;;;;4.80;1.00;;;;;;;7.77;63.06;149610.36;1667813;85;21478;-66
2022/10/20 04:50:00;;;;;;;3.22;0.80;;;;;;;7.89;62.73;149640.14;1669871;85;21109;-66
2022/10/20 04:52:28;;;;;;;3.12;0.80;;;;;;;8.16;62.44;149708.75;1680845;84;21092;-64
2022/10/20 04:54:55;;;;;;;4.12;0.80;;;;;;;8.38;62.06;149761.89;1674915;85;21080;-64
2022/10/20 04:57:21;;;;;;;1.27;0.55;;;;;;;8.45;61.93;149780.02;1666759;84;21072;-64
2022/10/20 04:59:48;;;;;;;3.92;0.98;;;;;;;8.49;62.03;149789.11;1664845;85;21262;-66
2022/10/20 05:02:15;;;;;;;6.33;0.70;;;;;;;8.43;62.35;149774.84;1669156;85;21140;-62
2022/10/20 05:04:41;;;;;;;7.55;0.90;;;;;;;8.39;62.60;149765.75;1685327;84;21081;-62
2022/10/20 05:07:08;;;;;;;10.48;0.88;;;;;;;8.36;62.73;149756.72;1683545;84;21342;-62
2022/10/20 05:09:35;;;;;;;7.47;0.93;;;;;;;8.33;62.82;149748.95;1676243;84;21022;-62
2022/10/20 05:12:04;;;;;;;8.28;0.82;;;;;;;8.27;62.91;149734.69;1675135;84;21022;-62
2022/10/20 05:14:32;;;;;;;3.85;0.90;;;;;;;8.25;62.92;149729.52;1672929;85;21034;-62
2022/10/20 05:17:00;;;;;;;4.83;1.15;;;;;;;8.22;63.13;149723.02;1675920;84;21045;-63
2022/10/20 05:19:29;;;;;;;6.33;0.98;;;;;;;8.21;63.07;149720.42;1675886;84;21028;-62
2022/10/20 05:21:56;;;;;;;6.80;1.15;;;;;;;8.21;63.12;149720.42;1661266;85;21063;-62
2022/10/20 05:24:22;;;;;;;6.60;1.20;;;;;;;8.22;63.30;149721.75;1661384;85;21301;-62
2022/10/20 05:26:50;;;;;;;5.20;0.90;;;;;;;8.25;63.28;149730.78;1681000;84;21013;-63
2022/10/20 05:29:16;;;;;;;12.50;1.45;;;;;;;8.29;63.02;149741.19;1679315;84;21051;-63
2022/10/20 05:31:43;;;;;;;8.68;1.37;;;;;;;8.30;62.67;149743.78;1665355;84;21135;-63
2022/10/20 05:34:10;;;;;;;5.22;0.90;;;;;;;8.33;62.57;149748.95;1678784;84;21148;-64
2022/10/20 05:36:37;;;;;;;6.45;1.15;;;;;;;8.34;62.61;149751.53;1674207;84;21534;-62
2022/10/20 05:39:04;;;;;;;4.12;1.00;;;;;;;8.35;62.35;149754.12;1670134;84;21185;-62
2022/10/20 05:41:33;;;;;;;9.73;0.88;;;;;;;8.34;62.46;149751.53;1676877;84;21038;-63
2022/10/20 05:44:01;;;;;;;2.72;0.80;;;;;;;8.34;62.66;149751.53;1677773;85;21111;-62
2022/10/20 05:46:31;;;;;;;14.00;0.95;;;;;;;8.37;62.63;149760.58;1674356;83;21045;-63
2022/10/20 05:49:01;;;;;;;5.12;0.80;;;;;;;8.37;62.20;149760.58;1670104;84;21129;-62
2022/10/20 05:51:30;;;;;;;3.15;0.53;;;;;;;8.36;61.93;149756.72;1674686;84;20948;-63
2022/10/20 05:53:58;;;;;;;14.30;1.32;;;;;;;8.37;62.07;149759.31;1674662;85;21506;-62
2022/10/20 05:56:26;;;;;;;5.05;0.70;;;;;;;8.38;61.79;149761.89;1675346;85;21090;-61
2022/10/20 05:58:53;;;;;;;3.02;0.72;;;;;;;8.38;61.50;149763.16;1673479;84;21521;-62
2022/10/20 06:01:23;;;;;;;5.83;0.60;;;;;;;8.38;61.24;149761.89;1667525;85;21167;-63
2022/10/20 06:03:57;;;;;;;2.30;0.60;;;;;;;8.38;61.03;149761.89;1661631;85;21070;-62
2022/10/20 06:06:27;;;;;;;5.58;0.75;;;;;;;8.36;60.88;149756.72;1665995;84;21011;-62
2022/10/20 06:08:56;;;;;;;0.85;0.65;;;;;;;8.37;60.63;149759.31;1666467;84;21106;-62
2022/10/20 06:11:25;;;;;;;6.25;0.80;;;;;;;8.33;60.17;149750.22;1669480;84;21065;-63
2022/10/20 06:13:52;;;;;;;2.90;0.70;;;;;;;8.32;59.57;149747.62;1676729;84;21159;-62
2022/10/20 06:16:22;;;;;;;4.53;0.80;;;;;;;8.29;59.27;149739.88;1673311;84;21055;-62
2022/10/20 06:18:51;;;;;;;2.05;0.33;;;;;;;8.31;59.58;149746.38;1674954;84;21073;-62
2022/10/20 06:21:20;;;;;;;1.80;0.78;;;;;;;8.36;58.62;149757.98;1667245;84;21534;-62
2022/10/20 06:23:48;;;;;;;1.57;0.50;;;;;;;8.36;58.57;149756.72;1666300;84;21047;-62
2022/10/20 06:26:18;;;;;;;5.33;0.80;;;;;;;8.37;58.44;149759.31;1665377;84;22125;-62
2022/10/20 06:28:47;;;;;;;10.90;0.98;;;;;;;8.36;58.43;149756.72;1664852;84;21125;-62
2022/10/20 06:31:20;;;;;;;1.57;0.78;;;;;;;8.36;57.36;149756.72;1672001;84;21073;-61
2022/10/20 06:33:47;;;;;;;2.60;0.50;;;;;;;8.35;57.54;149754.12;1661928;84;21104;-63
2022/10/20 06:36:14;;;;;;;2.58;0.30;;;;;;;8.38;57.00;149761.89;1627556;85;21644;-62
2022/10/20 06:38:41;;;;;;;1.15;0.50;;;;;;;8.41;56.20;149769.66;1667630;84;21937;-62
2022/10/20 06:41:16;;;;;;;10.53;0.90;;;;;;;8.42;56.22;149772.25;1661614;84;38150;-62
2022/10/20 06:43:44;;;;;;;8.80;1.35;;;;;;;8.43;56.54;149776.16;1645489;85;21507;-62
2022/10/20 06:46:15;;;;;;;2.05;0.60;;;;;;;8.48;56.60;149787.78;1638316;85;21085;-62
2022/10/20 06:48:42;;;;;;;2.30;0.72;;;;;;;8.54;56.70;149802.09;1660257;84;21052;-63
2022/10/20 06:51:14;;;;;;;5.80;0.70;;;;;;;8.55;55.34;149806.00;1666333;84;21128;-62
2022/10/20 06:53:42;;;;;;;4.65;0.80;;;;;;;8.58;55.20;149813.78;1633694;86;21126;-63
2022/10/20 06:56:15;;;;;;;4.78;0.70;;;;;;;8.60;53.37;149818.95;1660090;85;21080;-62
2022/10/20 06:58:46;;;;;;;4.15;0.70;;;;;;;8.54;54.02;149803.42;1680010;84;21130;-62
2022/10/20 07:01:19;;;;;;;5.78;0.70;;;;;;;8.53;54.09;149800.83;1672382;84;21146;-63
2022/10/20 07:03:46;;;;;;;10.23;0.90;;;;;;;8.54;52.97;149802.09;1634048;85;21142;-62
2022/10/20 07:06:18;;;;;;;5.62;0.65;;;;;;;8.56;53.07;149808.59;1676278;84;21625;-62
2022/10/20 07:08:45;;;;;;;21.77;1.05;;;;;;;8.62;51.32;149822.86;1660468;84;21541;-62
2022/10/20 07:11:18;;;;;;;15.15;1.00;;;;;;;8.64;50.21;149826.72;1658304;84;21143;-64
2022/10/20 07:13:47;;;;;;;24.12;1.35;;;;;;;8.58;49.88;149813.78;1653380;86;21112;-62
2022/10/20 07:16:17;;;;;;;18.10;1.30;;;;;;;8.55;49.65;149806.00;1660219;84;21293;-63
2022/10/20 07:18:45;;;;;;;7.17;0.80;;;;;;;8.54;49.29;149803.42;1657418;84;21079;-64
2022/10/20 07:21:17;;;;;;;14.03;1.20;;;;;;;8.53;49.45;149800.83;1661963;84;21506;-64
2022/10/20 07:23:43;;;;;;;10.23;1.10;;;;;;;8.54;50.07;149803.42;1667708;84;22696;-64
2022/10/20 07:26:22;;;;;;;11.22;1.52;;;;;;;8.60;50.14;149818.95;1667168;84;21131;-65
2022/10/20 07:28:55;;;;;;;8.43;0.68;;;;;;;8.68;49.68;149838.41;1660665;84;21155;-64
2022/10/20 07:31:37;;;;;;;17.30;0.90;;;;;;;8.68;48.66;149837.08;1665788;84;21095;-65
2022/10/20 07:34:05;;;;;;;11.00;1.12;;;;;;;8.55;48.62;149804.69;1669713;85;21115;-65
2022/10/20 07:36:33;;;;;;;5.85;0.75;;;;;;;8.47;49.59;149785.19;1634535;86;21029;-67
2022/10/20 07:39:07;;;;;;;6.45;0.80;;;;;;;8.49;49.43;149790.38;1681780;83;21146;-65
2022/10/20 07:41:29;;;;;;;4.42;0.62;;;;;;;8.49;49.76;149790.38;1642376;86;21083;-65
2022/10/20 07:43:56;;;;;;;5.80;0.70;;;;;;;8.48;49.97;149787.78;1664504;85;21565;-65
2022/10/20 07:46:23;;;;;;;3.25;0.55;;;;;;;8.53;50.14;149800.83;1682804;84;21308;-65
2022/10/20 07:48:50;;;;;;;7.25;0.60;;;;;;;8.61;49.82;149820.22;1639700;86;21118;-66
2022/10/20 07:51:27;;;;;;;1.32;0.47;;;;;;;8.67;49.20;149835.81;1687906;84;21477;-66
2022/10/20 07:53:52;;;;;;;5.63;1.10;;;;;;;8.69;48.54;149839.67;1684741;84;21231;-66
2022/10/20 07:56:19;;;;;;;8.85;0.70;;;;;;;8.64;48.75;149828.05;1667464;84;20967;-66
2022/10/20 07:58:47;;;;;;;6.28;0.50;;;;;;;8.66;48.58;149831.91;1668747;84;21101;-66
2022/10/20 08:01:15;;;;;;;7.17;0.68;;;;;;;8.66;48.54;149831.91;1668923;84;21138;-66
2022/10/20 08:03:44;;;;;;;1.55;0.40;;;;;;;8.66;48.18;149833.22;1680603;84;21481;-65
2022/10/20 08:06:10;;;;;;;6.95;0.50;;;;;;;8.69;47.85;149840.98;1642028;86;21237;-66
2022/10/20 08:09:02;;;;;;;4.53;0.70;;;;;;;8.78;47.32;149861.70;1654722;85;21080;-65
2022/10/20 08:11:47;;;;;;;4.45;0.70;;;;;;;8.81;47.07;149869.47;1675538;84;21127;-66
2022/10/20 08:14:14;;;;;;;8.50;0.60;;;;;;;8.82;47.14;149873.38;1669990;84;21565;-66
2022/10/20 08:16:41;;;;;;;5.67;0.80;;;;;;;8.87;46.66;149886.33;1650790;85;21082;-66
2022/10/20 08:19:08;;;;;;;6.12;0.75;;;;;;;8.91;46.13;149894.09;1668107;84;21266;-66
2022/10/20 08:21:36;;;;;;;6.53;0.95;;;;;;;8.91;46.24;149895.42;1669368;84;21039;-66
2022/10/20 08:24:05;;;;;;;6.33;0.60;;;;;;;8.95;45.59;149904.47;1643839;85;21047;-66
2022/10/20 08:26:32;;;;;;;5.33;0.60;;;;;;;8.93;45.58;149899.28;1654768;86;21089;-65
2022/10/20 08:28:58;;;;;;;7.17;0.30;;;;;;;8.92;45.51;149898.00;1663485;84;21562;-65
2022/10/20 08:31:25;;;;;;;5.03;0.50;;;;;;;8.95;45.10;149904.47;1660401;85;21647;-65
2022/10/20 08:33:53;;;;;;;2.67;0.50;;;;;;;8.95;45.03;149904.47;1660677;84;21089;-65
2022/10/20 08:36:19;;;;;;;7.08;0.50;;;;;;;8.97;44.47;149909.69;1660654;84;21066;-65
2022/10/20 08:39:02;;;;;;;3.60;0.50;;;;;;;8.97;44.14;149909.69;1653227;84;21122;-65
2022/10/20 08:41:28;;;;;;;5.45;0.95;;;;;;;8.97;44.49;149909.69;1658377;84;21055;-66
2022/10/20 08:43:56;;;;;;;13.48;1.30;;;;;;;8.99;44.32;149914.87;1656014;85;21859;-65
2022/10/20 08:46:28;;;;;;;2.67;0.40;;;;;;;9.04;43.64;149927.81;1656829;84;21110;-66
2022/10/20 08:49:07;;;;;;;7.90;0.60;;;;;;;9.10;43.27;149943.36;1659379;84;21110;-66
2022/10/20 08:51:37;;;;;;;2.90;0.53;;;;;;;9.13;43.97;149951.12;1659908;84;21181;-65
2022/10/20 08:54:05;;;;;;;5.08;1.10;;;;;;;9.22;44.28;149971.91;1664312;84;21123;-64
2022/10/20 08:56:33;;;;;;;3.30;0.57;;;;;;;9.20;43.95;149968.00;1637923;86;21902;-65
2022/10/20 08:59:02;;;;;;;3.67;0.80;;;;;;;9.13;44.15;149951.12;1664575;84;21046;-65
2022/10/20 09:01:33;;;;;;;7.67;1.02;;;;;;;9.16;44.53;149958.91;1663077;84;21063;-64
2022/10/20 09:04:25;;;;;;;5.22;0.68;;;;;;;9.21;44.47;149970.58;1665004;84;21703;-65
2022/10/20 09:07:00;;;;;;;8.53;0.50;;;;;;;9.24;44.40;149977.08;1669203;84;21624;-64
2022/10/20 09:09:29;;;;;;;4.00;0.90;;;;;;;9.19;44.34;149964.12;1665144;84;21194;-64
2022/10/20 09:12:00;;;;;;;4.65;0.68;;;;;;;9.18;43.55;149962.81;1665011;84;21148;-66
2022/10/20 09:14:28;;;;;;;2.55;0.60;;;;;;;9.20;43.05;149966.72;1661433;84;21113;-66
2022/10/20 09:16:57;;;;;;;3.55;0.42;;;;;;;9.20;42.81;149966.72;1659393;86;21711;-65
2022/10/20 09:19:23;;;;;;;7.45;0.70;;;;;;;9.14;42.45;149953.72;1664138;84;21079;-65
2022/10/20 09:21:53;;;;;;;5.30;0.80;;;;;;;9.07;42.95;149935.59;1664272;84;21248;-67
2022/10/20 09:24:21;;;;;;;1.60;0.60;;;;;;;9.07;43.60;149935.59;1658914;84;21434;-66
2022/10/20 09:26:49;;;;;;;1.45;0.68;;;;;;;9.16;43.64;149958.91;1659672;84;21158;-65
2022/10/20 09:29:21;;;;;;;8.95;0.90;;;;;;;9.25;43.74;149979.67;1643413;85;21126;-66
2022/10/20 09:31:53;;;;;;;9.33;0.78;;;;;;;9.34;43.75;150002.98;1655682;84;21113;-65
2022/10/20 09:34:30;;;;;;;8.60;0.57;;;;;;;9.46;43.92;150034.13;1658097;85;21234;-65
2022/10/20 09:37:10;;;;;;;7.90;1.00;;;;;;;9.57;43.49;150060.03;1671740;85;21024;-65
2022/10/20 09:39:57;;;;;;;3.72;0.85;;;;;;;9.61;43.25;150070.41;1658057;85;21086;-66
2022/10/20 09:42:39;;;;;;;4.10;0.70;;;;;;;9.59;43.77;150066.53;1666482;85;21071;-66
2022/10/20 09:45:20;;;;;;;4.72;0.57;;;;;;;9.65;43.45;150080.81;1649617;85;21108;-66
2022/10/20 09:47:53;;;;;;;;;;;;;;;9.64;43.10;150078.22;1653400;85;21170;-68
2022/10/20 09:50:28;;;;;;;2.25;1.00;;;;;;;9.58;42.84;150062.62;1649122;85;20184;-66
2022/10/20 09:52:54;;;;;;;3.85;0.57;;;;;;;9.60;43.46;150067.81;1657337;85;21485;-66
2022/10/20 09:55:32;;;;;;;2.95;0.78;;;;;;;9.68;43.57;150087.28;1656469;85;21122;-66
2022/10/20 09:58:02;;;;;;;6.83;0.80;;;;;;;9.69;43.65;150091.19;1649728;85;21060;-66
2022/10/20 10:00:35;;;;;;;15.10;1.27;;;;;;;9.70;43.58;150093.78;1657405;85;21211;-66
2022/10/20 10:03:21;;;;;;;17.50;1.12;;;;;;;9.70;43.43;150092.45;1644993;86;21178;-63
2022/10/20 10:05:58;;;;;;;4.50;0.75;;;;;;;9.69;43.34;150091.19;1677322;84;21539;-64
2022/10/20 10:08:29;;;;;;;4.58;0.60;;;;;;;9.69;43.50;150091.19;1630864;85;21631;-65
2022/10/20 10:11:03;;;;;;;2.75;0.60;;;;;;;9.75;43.86;150106.73;1652164;84;21072;-64
2022/10/20 10:13:35;;;;;;;5.28;0.70;;;;;;;9.86;43.93;150132.70;1675096;84;21198;-62
2022/10/20 10:16:08;;;;;;;5.72;0.53;;;;;;;9.94;43.70;150152.11;1641183;85;21054;-65
2022/10/20 10:18:36;;;;;;;13.35;0.85;;;;;;;9.98;43.96;150163.80;1658659;84;21068;-62
2022/10/20 10:21:09;;;;;;;11.73;1.07;;;;;;;10.04;43.52;150179.34;1661011;84;21052;-64
2022/10/20 10:23:56;;;;;;;10.78;1.05;;;;;;;10.06;43.58;150183.27;1665724;84;21582;-63
2022/10/20 10:26:49;;;;;;;3.00;0.60;;;;;;;10.07;43.40;150184.59;1675579;84;21238;-67
2022/10/20 10:29:19;;;;;;;4.00;0.80;;;;;;;10.02;43.85;150174.17;1681602;83;21604;-65
2022/10/20 10:32:00;;;;;;;3.25;0.90;;;;;;;10.03;43.54;150176.75;1657249;84;21350;-65
2022/10/20 10:34:52;;;;;;;4.28;0.80;;;;;;;10.03;43.71;150176.75;1648375;84;21087;-65
2022/10/20 10:37:19;;;;;;;5.37;0.80;;;;;;;10.01;43.98;150171.58;1670458;84;21071;-66
2022/10/20 10:39:46;;;;;;;3.45;0.70;;;;;;;10.06;43.31;150181.94;1660766;84;21174;-65
2022/10/20 10:42:54;;;;;;;5.83;0.90;;;;;;;10.05;43.20;150180.67;1665072;84;21322;-67
2022/10/20 10:46:05;;;;;;;10.00;0.90;;;;;;;10.08;43.74;150187.17;1666730;84;21491;-66
2022/10/20 10:49:01;;;;;;;4.72;0.65;;;;;;;10.18;44.32;150213.09;1666831;84;21174;-67
2022/10/20 10:52:07;;;;;;;6.20;0.70;;;;;;;10.23;44.21;150226.06;1669196;84;21063;-66
2022/10/20 10:54:58;;;;;;;5.83;0.65;;;;;;;10.17;43.93;150211.83;1635736;86;22123;-66
2022/10/20 10:57:47;;;;;;;4.78;0.65;;;;;;;10.13;44.37;150200.13;1629270;86;21124;-67
2022/10/20 11:00:40;;;;;;;11.18;0.80;;;;;;;10.14;44.66;150202.73;1632849;84;21040;-66
2022/10/20 11:03:22;;;;;;;4.60;0.80;;;;;;;10.19;44.76;150215.69;1670192;84;21063;-67
2022/10/20 11:06:22;;;;;;;4.00;1.00;;;;;;;10.31;44.30;150245.53;1658018;84;21108;-66
2022/10/20 11:09:12;;;;;;;10.80;0.85;;;;;;;10.32;43.64;150248.13;1633352;86;21131;-67
2022/10/20 11:11:56;;;;;;;8.83;0.85;;;;;;;10.27;43.70;150236.44;1678456;84;21063;-65
2022/10/20 11:14:35;;;;;;;9.85;1.20;;;;;;;10.22;44.21;150223.47;1673238;84;21491;-66
2022/10/20 11:17:22;;;;;;;9.35;1.32;;;;;;;10.13;44.18;150200.13;1676001;84;21583;-66
2022/10/20 11:20:17;;;;;;;4.25;0.80;;;;;;;10.07;44.20;150185.86;1680308;84;21040;-67
2022/10/20 11:23:17;;;;;;;2.30;0.80;;;;;;;10.10;44.42;150192.36;1670703;84;21777;-64
2022/10/20 11:25:55;;;;;;;1.87;0.80;;;;;;;10.16;45.03;150207.91;1673539;84;21540;-66
2022/10/20 11:28:28;;;;;;;4.45;0.90;;;;;;;10.27;45.48;150235.16;1662901;84;21108;-66
2022/10/20 11:30:57;;;;;;;8.13;1.15;;;;;;;10.36;45.40;150258.50;1661678;84;21372;-66
2022/10/20 11:33:28;;;;;;;10.65;1.50;;;;;;;10.39;45.55;150265.00;1672352;84;21083;-66
2022/10/20 11:36:06;;;;;;;7.83;0.70;;;;;;;10.44;45.42;150278.02;1677965;84;21627;-65
2022/10/20 11:38:45;;;;;;;8.88;1.22;;;;;;;10.44;45.26;150278.02;1684340;84;21039;-66
2022/10/20 11:41:29;;;;;;;6.80;0.80;;;;;;;10.43;45.29;150275.42;1684613;84;21080;-65
2022/10/20 11:44:24;;;;;;;7.60;0.70;;;;;;;10.42;45.59;150272.83;1685169;84;21118;-66
2022/10/20 11:47:01;;;;;;;1.35;0.60;;;;;;;10.47;45.48;150285.78;1667503;84;21096;-65
2022/10/20 11:49:29;;;;;;;2.50;0.70;;;;;;;10.58;45.41;150314.36;1678349;84;21261;-66
2022/10/20 11:52:11;;;;;;;6.17;0.88;;;;;;;10.65;45.37;150329.92;1673371;84;20992;-66
2022/10/20 11:54:52;;;;;;;15.08;1.02;;;;;;;10.73;45.50;150350.72;1675460;84;21123;-66